Time;durP1;ratioP1;P1;durP2;ratioP2;P2;SDS_P1;SDS_P2;PMS_P1;PMS_P2;Temp;Humidity;BMP_temperature;BMP_pressure;BME280_temperature;BME280_humidity;BME280_pressure;Samples;Min_cycle;Max_cycle;Signal;HPM_P1;HPM_P2
2021/12/25 00:02:17;;;;;;;16.30;12.13;;;;;;;-0.02;90.37;97507.05;2128066;84;20981;-84
2021/12/25 00:05:18;;;;;;;17.07;12.10;;;;;;;-0.07;90.45;97512.45;2127967;84;20996;-83
2021/12/25 00:08:18;;;;;;;18.83;12.87;;;;;;;-0.10;90.51;97522.61;2128357;84;20993;-83
2021/12/25 00:11:19;;;;;;;17.97;13.07;;;;;;;-0.13;90.57;97526.36;2129859;84;21356;-84
2021/12/25 00:14:22;;;;;;;21.03;13.93;;;;;;;-0.13;90.74;97535.75;2129487;83;20925;-83
2021/12/25 00:17:22;;;;;;;20.07;14.67;;;;;;;-0.16;90.61;97537.80;2129060;84;21020;-83
2021/12/25 00:20:22;;;;;;;19.83;14.13;;;;;;;-0.19;90.83;97535.55;2131519;83;21369;-84
2021/12/25 00:23:23;;;;;;;18.93;13.60;;;;;;;-0.20;90.89;97541.09;2135984;83;21322;-83
2021/12/25 00:27:22;;;;;;;17.70;13.70;;;;;;;-0.22;91.02;97536.32;2135806;83;21028;-83
2021/12/25 00:33:32;;;;;;;19.30;12.97;;;;;;;-0.22;91.14;97550.43;2109374;83;20999;-84
2021/12/25 00:35:49;;;;;;;15.77;13.40;;;;;;;-0.22;91.04;97551.71;2132023;83;21052;-84
2021/12/25 00:38:49;;;;;;;18.00;14.03;;;;;;;-0.20;90.90;97555.61;2135972;83;20981;-84
2021/12/25 00:41:50;;;;;;;17.50;13.97;;;;;;;-0.22;90.63;97560.69;2135961;83;20980;-84
2021/12/25 00:44:50;;;;;;;18.63;13.90;;;;;;;-0.23;90.01;97570.89;2135586;83;20976;-84
2021/12/25 00:47:51;;;;;;;20.93;15.53;;;;;;;-0.25;89.75;97581.09;2135655;83;21004;-82
2021/12/25 00:50:51;;;;;;;20.17;14.80;;;;;;;-0.27;89.94;97594.28;2136071;83;20977;-84
2021/12/25 00:53:52;;;;;;;22.87;15.10;;;;;;;-0.26;89.56;97607.97;2135967;83;20964;-83
2021/12/25 00:56:52;;;;;;;20.80;15.90;;;;;;;-0.29;89.50;97608.74;2136145;83;20961;-82
2021/12/25 00:59:53;;;;;;;19.10;13.37;;;;;;;-0.31;89.46;97625.77;2136141;83;20972;-82
2021/12/25 01:02:53;;;;;;;10.63;7.53;;;;;;;-0.36;88.59;97635.86;2135631;83;21012;-83
2021/12/25 01:05:54;;;;;;;11.03;7.73;;;;;;;-0.57;84.50;97647.05;2136018;83;20988;-83
2021/12/25 01:08:54;;;;;;;7.87;6.63;;;;;;;-0.80;85.50;97658.63;2135809;83;21436;-82
2021/12/25 01:11:56;;;;;;;7.90;6.60;;;;;;;-0.93;85.73;97667.04;2135842;83;21011;-83
2021/12/25 01:15:00;;;;;;;7.90;6.03;;;;;;;-1.06;85.55;97674.67;2136082;83;21036;-82
2021/12/25 01:18:23;;;;;;;6.30;5.40;;;;;;;-1.19;85.65;97694.22;2135128;82;21000;-81
2021/12/25 01:21:35;;;;;;;8.30;5.57;;;;;;;-1.27;85.67;97701.59;2127662;83;21309;-82
2021/12/25 01:24:44;;;;;;;6.10;4.60;;;;;;;-1.32;85.80;97714.22;2124531;84;20992;-80
2021/12/25 01:28:27;;;;;;;4.67;4.10;;;;;;;-1.45;83.22;97723.91;2125599;84;20991;-81
2021/12/25 01:31:05;;;;;;;4.73;4.33;;;;;;;-1.58;83.86;97722.94;2123217;84;21021;-82
2021/12/25 01:37:37;;;;;;;5.07;3.93;;;;;;;-1.71;85.00;97739.47;2128697;83;21024;-81
2021/12/25 01:47:46;;;;;;;4.73;3.73;;;;;;;-1.94;84.01;97754.69;2128832;83;20988;-82
2021/12/25 01:50:11;;;;;;;5.20;3.93;;;;;;;-2.01;83.22;97768.42;2124601;84;21015;-83
2021/12/25 01:53:11;;;;;;;6.50;4.40;;;;;;;-2.07;83.64;97776.70;2128554;83;21451;-81
2021/12/25 01:56:12;;;;;;;5.20;4.13;;;;;;;-2.14;83.58;97784.05;2128416;84;21396;-82
2021/12/25 01:59:12;;;;;;;7.17;5.10;;;;;;;-2.17;83.64;97785.19;2128490;84;21361;-82
2021/12/25 02:02:14;;;;;;;5.10;4.30;;;;;;;-2.22;83.89;97806.71;2128449;84;21087;-81
2021/12/25 02:05:15;;;;;;;7.87;5.30;;;;;;;-2.27;83.78;97791.57;2128386;84;20980;-82
2021/12/25 02:08:15;;;;;;;6.97;4.97;;;;;;;-2.30;83.99;97803.81;2128451;84;20976;-82
2021/12/25 02:11:16;;;;;;;5.73;4.80;;;;;;;-2.32;83.71;97803.27;2128350;84;21008;-83
2021/12/25 02:14:16;;;;;;;7.63;5.10;;;;;;;-2.38;83.62;97807.70;2128495;84;20925;-82
2021/12/25 02:17:24;;;;;;;6.67;4.97;;;;;;;-2.43;84.09;97806.63;2128340;83;20977;-81
2021/12/25 02:20:22;;;;;;;5.63;4.97;;;;;;;-2.44;83.42;97824.44;2127128;84;21376;-83
2021/12/25 02:23:22;;;;;;;5.23;4.00;;;;;;;-2.49;83.42;97820.40;2127860;84;21091;-80
2021/12/25 02:26:24;;;;;;;6.67;4.40;;;;;;;-2.52;83.30;97827.92;2128250;83;21002;-82
2021/12/25 02:29:24;;;;;;;7.80;4.93;;;;;;;-2.54;83.93;97824.83;2128285;84;21043;-81
2021/12/25 02:32:25;;;;;;;5.77;4.40;;;;;;;-2.55;84.19;97820.12;2128144;83;21409;-80
2021/12/25 02:35:25;;;;;;;5.20;4.13;;;;;;;-2.55;83.82;97829.06;2128151;84;20989;-81
2021/12/25 02:38:26;;;;;;;5.13;3.77;;;;;;;-2.55;84.19;97844.79;2128031;84;20953;-81
2021/12/25 02:41:26;;;;;;;3.00;2.70;;;;;;;-2.57;82.93;97856.22;2127416;83;21022;-81
2021/12/25 02:44:27;;;;;;;2.10;2.00;;;;;;;-2.58;80.76;97857.02;2127955;84;20957;-81
2021/12/25 02:47:30;;;;;;;2.73;1.87;;;;;;;-2.69;79.54;97864.55;2127829;83;21360;-80
2021/12/25 02:50:30;;;;;;;3.07;1.93;;;;;;;-2.80;77.90;97893.41;2127933;83;20977;-80
2021/12/25 02:53:31;;;;;;;2.23;1.70;;;;;;;-2.95;76.67;97897.37;2127473;83;21035;-80
2021/12/25 02:56:31;;;;;;;3.60;2.70;;;;;;;-3.06;77.57;97897.65;2127750;84;20989;-80
2021/12/25 02:59:32;;;;;;;2.30;1.90;;;;;;;-3.17;77.75;97906.45;2127805;84;21008;-80
2021/12/25 03:02:32;;;;;;;3.20;1.77;;;;;;;-3.23;78.94;97913.00;2127989;83;21001;-80
2021/12/25 03:05:33;;;;;;;3.20;2.30;;;;;;;-3.27;79.01;97903.44;2127860;84;20977;-81
2021/12/25 03:08:33;;;;;;;2.73;1.90;;;;;;;-3.31;78.83;97913.42;2127576;83;21404;-81
2021/12/25 03:11:34;;;;;;;3.23;1.83;;;;;;;-3.39;79.33;97928.73;2127977;83;21009;-79
2021/12/25 03:14:37;;;;;;;2.93;2.17;;;;;;;-3.45;79.78;97935.69;2127832;84;20961;-80
2021/12/25 03:17:37;;;;;;;3.20;1.90;;;;;;;-3.54;78.87;97950.48;2127505;84;20989;-81
2021/12/25 03:20:40;;;;;;;4.67;2.20;;;;;;;-3.67;79.37;97958.30;2130116;83;20980;-81
2021/12/25 03:23:41;;;;;;;2.33;1.70;;;;;;;-3.84;79.30;97972.70;2134100;83;21064;-81
2021/12/25 03:26:42;;;;;;;2.33;1.67;;;;;;;-4.01;77.83;97976.02;2134657;83;20968;-82
2021/12/25 03:29:42;;;;;;;3.53;2.03;;;;;;;-4.19;77.39;97979.31;2134609;83;20941;-80
2021/12/25 03:32:43;;;;;;;2.57;2.00;;;;;;;-4.38;75.71;97983.28;2134786;83;21071;-81
2021/12/25 03:35:43;;;;;;;3.67;1.70;;;;;;;-4.56;75.73;97985.67;2134401;83;21413;-79
2021/12/25 03:38:44;;;;;;;2.87;1.60;;;;;;;-4.72;74.21;97994.12;2134795;83;20984;-79
2021/12/25 03:41:44;;;;;;;2.77;1.60;;;;;;;-4.85;75.12;97986.17;2135082;83;20953;-81
2021/12/25 03:44:45;;;;;;;4.13;1.60;;;;;;;-4.95;74.57;98005.92;2134996;83;20980;-80
2021/12/25 03:47:47;;;;;;;2.03;1.70;;;;;;;-5.06;75.03;98006.95;2134990;83;20949;-79
2021/12/25 04:00:30;;;;;;;2.77;1.43;;;;;;;-5.31;75.42;98032.19;2133969;83;20988;-80
2021/12/25 04:03:47;;;;;;;2.57;1.37;;;;;;;-5.40;75.64;98020.19;2134116;83;21004;-81
2021/12/25 04:06:32;;;;;;;2.97;1.37;;;;;;;-5.46;75.66;98017.28;2131752;83;20960;-79
2021/12/25 04:09:34;;;;;;;2.13;1.43;;;;;;;-5.51;76.34;98022.09;2134861;83;20940;-80
2021/12/25 04:12:35;;;;;;;4.00;1.50;;;;;;;-5.56;75.17;98034.04;2135200;83;21007;-81
2021/12/25 04:15:35;;;;;;;2.00;1.20;;;;;;;-5.63;74.66;98030.24;2134728;83;21024;-80
2021/12/25 04:18:36;;;;;;;2.83;1.60;;;;;;;-5.71;75.16;98040.34;2134934;83;20945;-80
2021/12/25 04:21:41;;;;;;;2.43;1.43;;;;;;;-5.75;75.86;98042.59;2131259;83;21239;-80
2021/12/25 04:24:42;;;;;;;4.17;1.60;;;;;;;-5.80;75.28;98058.44;2127471;84;20972;-81
2021/12/25 04:27:41;;;;;;;4.27;1.73;;;;;;;-5.79;76.32;98056.38;2127816;83;20973;-81
2021/12/25 05:06:23;;;;;;;3.63;1.50;;;;;;;1.07;100.00;98105.27;2100766;84;20992;-79
2021/12/25 05:09:23;;;;;;;2.40;1.77;;;;;;;1.16;100.00;98118.47;2127758;84;21337;-79
2021/12/25 05:12:23;;;;;;;1.93;1.40;;;;;;;-1.98;74.46;98135.16;2127462;84;20996;-79
2021/12/25 05:15:24;;;;;;;5.43;1.60;;;;;;;-3.41;72.52;98155.76;2127971;83;20925;-79
2021/12/25 05:18:24;;;;;;;3.83;2.10;;;;;;;-4.35;73.06;98145.23;2127151;84;21340;-79
2021/12/25 05:21:25;;;;;;;5.97;3.80;;;;;;;-4.86;74.86;98156.64;2130762;83;20992;-79
2021/12/25 05:24:27;;;;;;;4.37;2.90;;;;;;;-5.18;74.90;98155.96;2138080;83;20964;-79
2021/12/25 05:27:27;;;;;;;4.27;1.83;;;;;;;-5.38;75.96;98162.72;2138638;83;21008;-78
2021/12/25 05:30:28;;;;;;;2.53;2.10;;;;;;;-5.58;75.59;98170.38;2138220;83;21019;-80
2021/12/25 05:33:28;;;;;;;6.47;2.50;;;;;;;-4.16;95.11;98165.92;2138409;83;21012;-79
2021/12/25 05:36:29;;;;;;;4.60;1.93;;;;;;;-0.25;100.00;98151.72;2138635;83;21417;-79
2021/12/25 05:39:30;;;;;;;6.30;2.03;;;;;;;-2.74;82.30;98168.70;2138724;83;21609;-79
2021/12/25 05:42:30;;;;;;;3.10;2.07;;;;;;;-4.13;77.10;98186.49;2138084;83;21380;-79
2021/12/25 05:45:32;;;;;;;5.50;2.30;;;;;;;-4.91;74.89;98183.48;2138746;83;21024;-80
2021/12/25 05:48:35;;;;;;;6.07;2.73;;;;;;;-5.41;75.75;98197.75;2139021;83;21023;-78
2021/12/25 05:51:34;;;;;;;5.83;2.80;;;;;;;-5.75;76.78;98209.98;2138742;83;20980;-79
2021/12/25 05:54:35;;;;;;;6.83;2.30;;;;;;;-5.98;77.07;98213.99;2138823;83;21039;-79
2021/12/25 05:57:35;;;;;;;5.43;2.50;;;;;;;-6.10;77.48;98220.39;2138904;83;20980;-78
2021/12/25 06:00:36;;;;;;;5.20;2.77;;;;;;;-6.21;77.46;98228.96;2138879;83;21416;-77
2021/12/25 06:03:36;;;;;;;5.67;4.43;;;;;;;-6.27;77.61;98239.59;2138454;83;21352;-77
2021/12/25 06:06:37;;;;;;;19.20;11.50;;;;;;;-6.32;77.41;98250.22;2138659;83;20980;-77
2021/12/25 06:09:38;;;;;;;15.03;9.77;;;;;;;-6.40;77.53;98252.25;2138407;83;20992;-78
2021/12/25 06:12:39;;;;;;;15.70;7.80;;;;;;;-6.46;77.80;98260.72;2143386;83;21449;-77
2021/12/25 06:15:39;;;;;;;21.13;10.70;;;;;;;-6.51;77.80;98251.91;2144087;83;20944;-77
2021/12/25 06:18:40;;;;;;;28.00;13.33;;;;;;;-6.57;77.64;98251.10;2144390;83;20927;-77
2021/12/25 06:21:40;;;;;;;13.87;7.40;;;;;;;-6.62;77.60;98260.06;2138378;83;21027;-77
2021/12/25 06:24:43;;;;;;;7.17;4.77;;;;;;;-6.67;77.88;98252.52;2127874;84;20972;-77
2021/12/25 06:27:43;;;;;;;6.77;3.73;;;;;;;-6.68;77.98;98258.38;2171558;81;20951;-77
2021/12/25 06:30:45;;;;;;;4.30;3.43;;;;;;;-6.70;77.86;98256.51;2171666;81;21327;-77
2021/12/25 06:33:46;;;;;;;5.43;2.50;;;;;;;-6.77;77.98;98258.63;2171241;82;21091;-77
2021/12/25 06:36:46;;;;;;;3.30;2.20;;;;;;;-6.80;78.09;98267.30;2171834;82;21359;-77
2021/12/25 06:39:48;;;;;;;4.03;2.27;;;;;;;-6.84;77.97;98272.94;2171954;82;21313;-78
2021/12/25 06:42:48;;;;;;;4.47;2.47;;;;;;;-6.93;77.95;98276.48;2172656;81;20921;-77
2021/12/25 06:45:49;;;;;;;4.73;2.67;;;;;;;-7.00;78.19;98280.22;2172493;81;21004;-77
2021/12/25 06:48:49;;;;;;;5.90;3.30;;;;;;;-7.06;78.05;98289.55;2172663;81;21008;-77
2021/12/25 06:51:50;;;;;;;7.07;4.27;;;;;;;-7.10;78.29;98296.83;2172575;82;20993;-77
2021/12/25 06:54:50;;;;;;;15.73;6.73;;;;;;;-7.07;78.52;98292.86;2172522;81;20984;-77
2021/12/25 06:57:56;;;;;;;38.53;14.63;;;;;;;-7.02;78.47;98298.64;2172596;82;20996;-77
2021/12/25 07:00:56;;;;;;;27.73;11.20;;;;;;;-7.02;78.53;98294.45;2173005;81;21318;-77
2021/12/25 07:03:57;;;;;;;29.80;11.20;;;;;;;-6.97;78.50;98301.12;2172265;81;21046;-77
2021/12/25 07:06:57;;;;;;;35.57;12.43;;;;;;;-6.92;78.38;98308.31;2172458;81;20952;-77
2021/12/25 07:09:57;;;;;;;38.83;13.83;;;;;;;-6.87;78.32;98303.56;2172127;81;20973;-77
2021/12/25 07:12:58;;;;;;;25.83;12.73;;;;;;;-6.79;78.33;98314.73;2172531;81;20980;-77
2021/12/25 07:15:59;;;;;;;23.97;11.77;;;;;;;-6.68;78.28;98315.87;2172415;81;21384;-77
2021/12/25 07:18:59;;;;;;;19.03;10.10;;;;;;;-6.57;78.25;98324.73;2172701;81;20952;-77
2021/12/25 07:22:00;;;;;;;24.53;11.13;;;;;;;-6.47;77.92;98325.86;2178852;81;21047;-77
2021/12/25 07:25:00;;;;;;;32.33;12.60;;;;;;;-6.38;77.96;98330.69;2189110;81;21011;-76
2021/12/25 07:28:00;;;;;;;29.57;12.77;;;;;;;-6.27;77.93;98332.30;2189009;81;20956;-77
2021/12/25 07:31:01;;;;;;;25.17;11.70;;;;;;;-6.13;77.76;98325.23;2188845;81;20941;-77
2021/12/25 07:34:02;;;;;;;30.67;12.20;;;;;;;-6.01;77.46;98340.45;2188726;81;21012;-77
2021/12/25 07:37:03;;;;;;;34.67;12.77;;;;;;;-5.92;77.24;98345.28;2189086;81;21017;-76
2021/12/25 07:40:04;;;;;;;25.33;12.37;;;;;;;-5.85;77.25;98343.61;2189043;81;21349;-76
2021/12/25 07:43:04;;;;;;;22.37;10.43;;;;;;;-5.71;77.28;98344.13;2188572;81;21336;-76
2021/12/25 07:46:05;;;;;;;25.30;12.50;;;;;;;-5.60;76.63;98343.58;2188645;81;20949;-76
2021/12/25 07:49:06;;;;;;;23.83;11.90;;;;;;;-5.56;76.25;98346.81;2188989;81;20980;-77
2021/12/25 07:52:06;;;;;;;39.30;18.50;;;;;;;-5.56;75.76;98345.53;2189152;81;20956;-77
2021/12/25 07:55:06;;;;;;;65.90;27.17;;;;;;;-5.65;75.65;98345.81;2189131;81;21004;-77
2021/12/25 07:58:07;;;;;;;76.57;30.60;;;;;;;-5.73;75.51;98354.59;2188707;81;21008;-77
2021/12/25 08:01:08;;;;;;;75.37;29.70;;;;;;;-5.79;75.74;98360.15;2188830;81;20984;-77
2021/12/25 08:04:09;;;;;;;87.27;34.23;;;;;;;-5.80;75.96;98365.13;2188465;81;21388;-77
2021/12/25 08:07:10;;;;;;;116.20;41.73;;;;;;;-5.82;76.03;98367.57;2188608;81;20952;-77
2021/12/25 08:10:14;;;;;;;126.10;43.93;;;;;;;-5.80;76.09;98360.93;2188417;81;21706;-77
2021/12/25 08:13:16;;;;;;;114.50;40.63;;;;;;;-5.82;75.99;98362.48;2188441;81;21352;-77
2021/12/25 08:16:18;;;;;;;90.43;34.20;;;;;;;-5.83;76.01;98366.20;2188362;81;22226;-77
2021/12/25 08:19:18;;;;;;;74.00;26.93;;;;;;;-5.84;76.08;98366.59;2188600;81;21023;-77
2021/12/25 08:22:19;;;;;;;59.90;24.67;;;;;;;-5.87;75.80;98371.46;2188655;81;21012;-77
2021/12/25 08:25:19;;;;;;;52.83;24.83;;;;;;;-5.88;75.86;98372.24;2188965;81;21027;-77
2021/12/25 08:28:20;;;;;;;56.83;26.27;;;;;;;-5.86;75.92;98374.50;2188864;81;21344;-77
2021/12/25 08:31:21;;;;;;;65.47;29.20;;;;;;;-5.86;75.81;98373.23;2189162;81;20948;-77
2021/12/25 08:34:21;;;;;;;74.70;31.80;;;;;;;-5.79;75.87;98380.88;2189178;81;21091;-77
2021/12/25 08:37:24;;;;;;;67.63;28.53;;;;;;;-5.68;75.88;98377.78;2188757;81;20940;-76
2021/12/25 08:40:25;;;;;;;83.07;30.33;;;;;;;-5.58;75.59;98391.21;2188666;81;20936;-77
2021/12/25 08:43:32;;;;;;;68.13;27.37;;;;;;;-5.57;75.43;98395.52;2189168;81;20937;-77
2021/12/25 08:46:45;;;;;;;47.67;20.43;;;;;;;-5.55;75.27;98401.97;2188606;81;21023;-77
2021/12/25 08:49:36;;;;;;;61.67;24.53;;;;;;;-5.62;75.21;98409.97;2187713;81;20928;-77
2021/12/25 08:52:38;;;;;;;84.00;32.97;;;;;;;-5.65;75.51;98406.84;2189201;81;20976;-76
2021/12/25 08:55:38;;;;;;;115.73;41.97;;;;;;;-5.61;75.66;98419.37;2189075;81;20987;-76
2021/12/25 08:58:39;;;;;;;120.67;42.63;;;;;;;-5.42;75.35;98421.48;2189275;81;20948;-76
2021/12/25 09:01:40;;;;;;;89.83;34.63;;;;;;;-5.53;75.15;98425.45;2189387;81;21007;-76
2021/12/25 09:04:40;;;;;;;107.23;41.93;;;;;;;-5.45;75.00;98421.77;2188414;81;21042;-77
2021/12/25 09:07:41;;;;;;;127.20;51.20;;;;;;;-5.24;75.30;98418.48;2188989;81;20920;-76
2021/12/25 09:10:42;;;;;;;89.57;34.87;;;;;;;-4.96;75.08;98412.30;2188724;81;20936;-76
2021/12/25 09:13:42;;;;;;;69.50;27.50;;;;;;;-4.84;73.91;98407.11;2188903;81;21031;-76
2021/12/25 09:16:43;;;;;;;45.50;20.20;;;;;;;-4.68;74.15;98401.33;2189196;81;20991;-77
2021/12/25 09:19:43;;;;;;;57.43;23.60;;;;;;;-4.60;73.37;98399.77;2189096;81;20975;-77
2021/12/25 09:22:44;;;;;;;59.90;23.07;;;;;;;-4.51;73.12;98405.83;2188785;81;21020;-76
2021/12/25 09:25:44;;;;;;;42.73;19.10;;;;;;;-4.69;73.45;98414.84;2188996;81;21011;-76
2021/12/25 09:28:45;;;;;;;31.87;14.90;;;;;;;-4.62;73.77;98414.45;2189007;81;21383;-77
2021/12/25 09:31:45;;;;;;;27.10;12.30;;;;;;;-4.53;72.97;98416.31;2189040;81;21368;-77
2021/12/25 09:34:45;;;;;;;19.53;9.33;;;;;;;-4.40;72.00;98421.78;2188296;81;20988;-76
2021/12/25 09:37:46;;;;;;;18.77;10.00;;;;;;;-4.27;72.46;98415.42;2188605;81;20972;-76
2021/12/25 09:40:46;;;;;;;20.80;10.00;;;;;;;-4.16;72.67;98422.07;2188317;81;20924;-77
2021/12/25 09:43:48;;;;;;;23.33;9.63;;;;;;;-4.01;72.25;98423.02;2188890;81;20956;-76
2021/12/25 09:46:48;;;;;;;21.30;8.63;;;;;;;-3.90;71.79;98426.22;2189207;81;20964;-77
2021/12/25 09:49:49;;;;;;;17.07;8.73;;;;;;;-3.90;70.76;98425.83;2189307;81;20940;-77
2021/12/25 09:52:50;;;;;;;19.23;9.40;;;;;;;-3.99;70.73;98426.54;2188870;81;20976;-76
2021/12/25 09:55:50;;;;;;;25.47;11.13;;;;;;;-3.95;70.81;98419.96;2189454;81;21281;-76
2021/12/25 09:58:51;;;;;;;17.97;9.47;;;;;;;-3.91;70.91;98417.69;2189394;81;21376;-76
2021/12/25 10:01:52;;;;;;;14.97;8.57;;;;;;;-3.90;70.12;98415.63;2189321;81;20916;-77
2021/12/25 10:04:53;;;;;;;23.13;10.03;;;;;;;-3.95;70.88;98410.64;2188721;81;21372;-76
2021/12/25 10:07:53;;;;;;;19.20;10.23;;;;;;;-3.85;70.81;98412.08;2188974;81;21011;-76
2021/12/25 10:10:55;;;;;;;25.70;11.10;;;;;;;-3.75;70.97;98409.69;2189171;81;21364;-77
2021/12/25 10:13:56;;;;;;;17.00;8.60;;;;;;;-3.70;70.32;98409.17;2189114;81;21424;-77
2021/12/25 10:16:56;;;;;;;28.90;10.23;;;;;;;-3.65;70.37;98406.50;2188940;81;20976;-76
2021/12/25 10:19:57;;;;;;;24.80;10.67;;;;;;;-3.55;70.10;98410.09;2189244;81;20956;-77
2021/12/25 10:22:58;;;;;;;18.60;9.60;;;;;;;-3.50;70.11;98410.36;2180747;81;21431;-77
2021/12/25 10:25:59;;;;;;;25.77;10.20;;;;;;;-3.47;70.10;98411.82;2172666;81;21065;-77
2021/12/25 10:28:59;;;;;;;23.33;9.47;;;;;;;-3.43;70.08;98411.24;2172599;81;21379;-76
2021/12/25 10:32:02;;;;;;;18.50;8.73;;;;;;;-3.32;69.94;98410.20;2172717;81;21389;-77
2021/12/25 10:35:02;;;;;;;29.80;12.30;;;;;;;-3.30;69.71;98417.55;2172444;82;21015;-77
2021/12/25 10:38:03;;;;;;;22.27;9.87;;;;;;;-3.32;68.86;98408.92;2172770;81;21297;-76
2021/12/25 10:41:04;;;;;;;18.33;8.70;;;;;;;-3.34;70.10;98407.08;2172647;82;21027;-76
2021/12/25 10:44:04;;;;;;;27.87;12.10;;;;;;;-3.30;69.96;98405.19;2172179;81;21396;-77
2021/12/25 10:47:05;;;;;;;33.57;13.37;;;;;;;-3.41;69.94;98400.73;2172432;81;21340;-76
2021/12/25 10:50:05;;;;;;;19.57;9.30;;;;;;;-3.52;70.46;98396.63;2172610;82;21341;-76
2021/12/25 10:53:10;;;;;;;23.53;9.97;;;;;;;-3.53;69.85;98399.97;2172239;82;20977;-76
2021/12/25 10:56:09;;;;;;;27.87;9.90;;;;;;;-3.46;69.82;98402.13;2127732;83;20971;-77
2021/12/25 10:59:09;;;;;;;38.33;12.87;;;;;;;-3.29;70.50;98397.62;2128114;84;21347;-76
2021/12/25 11:02:09;;;;;;;32.13;12.63;;;;;;;-3.17;69.17;98405.11;2172624;81;20961;-76
2021/12/25 11:05:10;;;;;;;18.13;8.07;;;;;;;-3.21;69.82;98401.89;2172261;81;21020;-77
2021/12/25 11:08:10;;;;;;;20.43;9.73;;;;;;;-3.12;69.91;98409.20;2171965;81;20909;-77
2021/12/25 11:11:11;;;;;;;24.20;10.00;;;;;;;-3.20;70.12;98404.93;2172347;82;20948;-77
2021/12/25 11:14:12;;;;;;;22.73;10.03;;;;;;;-3.24;69.43;98400.05;2172335;81;21000;-77
2021/12/25 11:17:17;;;;;;;20.97;8.50;;;;;;;-3.34;70.09;98396.87;2172208;81;21012;-77
2021/12/25 11:20:18;;;;;;;19.87;8.67;;;;;;;-3.43;70.14;98398.48;2127346;83;20988;-78
2021/12/25 11:23:18;;;;;;;16.50;8.23;;;;;;;-3.50;70.25;98398.88;2132852;83;20963;-77
2021/12/25 11:26:19;;;;;;;19.40;7.03;;;;;;;-3.53;70.69;98402.53;2137458;83;20971;-77
2021/12/25 11:29:19;;;;;;;30.43;11.97;;;;;;;-3.45;70.61;98403.89;2136866;83;20934;-77
2021/12/25 11:32:21;;;;;;;26.20;12.03;;;;;;;-3.41;70.57;98398.58;2181771;81;21388;-77
2021/12/25 11:35:22;;;;;;;19.83;9.63;;;;;;;-3.38;70.69;98394.92;2181862;82;21415;-76
2021/12/25 11:38:22;;;;;;;16.63;7.67;;;;;;;-3.32;71.02;98391.45;2180761;82;20979;-76
2021/12/25 11:41:23;;;;;;;16.10;7.40;;;;;;;-3.33;70.19;98389.30;2182366;82;21397;-77
2021/12/25 11:44:23;;;;;;;16.27;7.50;;;;;;;-3.35;70.86;98371.74;2182272;82;21329;-77
2021/12/25 11:47:23;;;;;;;53.30;23.63;;;;;;;-3.32;70.33;98371.92;2182076;82;21356;-77
2021/12/25 11:50:24;;;;;;;21.73;7.20;;;;;;;-3.30;70.56;98379.66;2182245;82;21328;-79
2021/12/25 11:53:29;;;;;;;22.03;11.03;;;;;;;-3.29;70.51;98381.03;2182331;82;21382;-77
2021/12/25 11:56:43;;;;;;;13.20;5.60;;;;;;;-3.23;70.63;98381.38;2182087;81;21405;-76
2021/12/25 11:59:38;;;;;;;13.83;6.33;;;;;;;-3.25;69.31;98382.97;2135610;83;21032;-77
2021/12/25 12:02:39;;;;;;;11.07;6.07;;;;;;;-3.13;69.87;98387.02;2137474;83;21355;-76
2021/12/25 12:05:39;;;;;;;12.60;6.77;;;;;;;-2.97;69.99;98392.20;2137313;83;21027;-77
2021/12/25 12:08:40;;;;;;;14.20;6.20;;;;;;;-2.93;69.43;98392.47;2137342;83;21020;-77
2021/12/25 12:11:40;;;;;;;11.53;5.90;;;;;;;-2.89;69.53;98393.52;2137344;83;20952;-77
2021/12/25 12:14:41;;;;;;;12.70;5.67;;;;;;;-2.84;69.91;98398.89;2137447;83;21004;-76
2021/12/25 12:17:43;;;;;;;9.27;4.77;;;;;;;-2.77;69.50;98398.44;2137336;83;20976;-77
2021/12/25 12:20:44;;;;;;;12.57;6.27;;;;;;;-2.81;68.20;98405.05;2137942;83;21011;-77
2021/12/25 12:27:04;;;;;;;13.67;6.27;;;;;;;-2.86;68.42;98412.84;2137336;83;20979;-76
2021/12/25 12:30:04;;;;;;;6.13;4.13;;;;;;;-2.87;68.21;98407.25;2137167;83;20947;-76
2021/12/25 12:33:05;;;;;;;7.93;4.47;;;;;;;-2.96;67.04;98415.67;2137160;83;21055;-76
2021/12/25 12:36:05;;;;;;;10.97;4.70;;;;;;;-3.08;67.06;98423.91;2136963;83;20998;-76
2021/12/25 12:39:06;;;;;;;11.43;6.13;;;;;;;-3.15;66.06;98430.72;2137118;83;20988;-76
2021/12/25 12:42:12;;;;;;;11.80;4.70;;;;;;;-3.23;67.55;98436.27;2137346;83;21027;-77
2021/12/25 12:45:11;;;;;;;9.97;5.87;;;;;;;-3.34;67.42;98434.75;2182328;81;21017;-77
2021/12/25 12:48:12;;;;;;;13.27;7.03;;;;;;;-3.40;67.77;98424.58;2182594;81;21043;-77
2021/12/25 12:51:13;;;;;;;12.23;5.90;;;;;;;-3.40;68.28;98430.95;2182536;82;20916;-77
2021/12/25 12:54:13;;;;;;;13.90;5.57;;;;;;;-3.29;68.93;98438.45;2182347;82;21374;-77
2021/12/25 12:57:14;;;;;;;11.10;7.03;;;;;;;-3.19;69.00;98441.55;2182072;82;21324;-76
2021/12/25 13:00:18;;;;;;;13.73;6.97;;;;;;;-3.10;68.66;98440.80;2181940;82;21016;-76
2021/12/25 13:03:19;;;;;;;16.32;6.58;;;;;;;-3.09;69.03;98434.91;2182663;82;21052;-76
2021/12/25 13:06:19;;;;;;;9.67;5.23;;;;;;;-3.06;68.59;98441.47;2182702;81;21012;-77
2021/12/25 13:09:20;;;;;;;8.23;5.00;;;;;;;-3.12;68.34;98446.22;2182390;82;20973;-77
2021/12/25 13:12:32;;;;;;;11.53;5.40;;;;;;;-3.21;68.22;98442.34;2182370;81;20945;-77
2021/12/25 13:15:26;;;;;;;12.17;5.53;;;;;;;-3.25;68.49;98451.00;2135344;83;21063;-77
2021/12/25 13:18:26;;;;;;;12.67;5.50;;;;;;;-3.26;68.52;98448.84;2182469;81;21409;-77
2021/12/25 13:21:26;;;;;;;10.73;6.00;;;;;;;-3.24;68.96;98455.31;2182555;82;21000;-77
2021/12/25 13:24:27;;;;;;;13.93;5.83;;;;;;;-3.28;68.82;98452.98;2175072;81;20988;-77
2021/12/25 13:27:27;;;;;;;14.47;6.50;;;;;;;-3.36;68.84;98454.59;2172588;81;21004;-76
2021/12/25 13:30:28;;;;;;;13.07;6.87;;;;;;;-3.39;69.28;98459.12;2172802;81;20964;-77
2021/12/25 13:33:31;;;;;;;14.43;8.27;;;;;;;-3.43;69.67;98458.45;2172397;82;21019;-76
2021/12/25 13:36:33;;;;;;;13.37;7.07;;;;;;;-3.44;69.65;98453.26;2172401;81;21013;-77
2021/12/25 13:39:37;;;;;;;16.97;6.50;;;;;;;-3.50;69.91;98458.84;2127696;84;21351;-77
2021/12/25 13:42:36;;;;;;;17.37;6.83;;;;;;;-3.55;70.20;98462.78;2172267;81;21085;-77
2021/12/25 13:45:37;;;;;;;15.50;8.00;;;;;;;-3.55;70.47;98472.99;2172195;82;21371;-77
2021/12/25 13:48:37;;;;;;;15.70;7.83;;;;;;;-3.59;70.67;98465.55;2171757;82;21023;-77
2021/12/25 13:51:38;;;;;;;16.97;8.03;;;;;;;-3.63;70.83;98475.47;2172201;81;20984;-77
2021/12/25 13:54:38;;;;;;;23.70;9.83;;;;;;;-3.71;70.92;98480.50;2171915;81;20996;-77
2021/12/25 13:57:39;;;;;;;17.53;7.93;;;;;;;-3.83;71.30;98478.08;2172355;82;20925;-77
2021/12/25 14:00:39;;;;;;;26.13;11.97;;;;;;;-3.92;71.42;98476.24;2172027;82;20992;-77
2021/12/25 14:03:40;;;;;;;21.40;10.90;;;;;;;-4.01;71.66;98488.02;2172689;81;21034;-77
2021/12/25 14:06:40;;;;;;;24.27;12.53;;;;;;;-4.08;71.90;98490.98;2171765;81;21059;-77
2021/12/25 14:09:41;;;;;;;20.03;11.20;;;;;;;-4.12;72.28;98495.78;2172120;81;20933;-77
2021/12/25 14:12:41;;;;;;;148.70;80.17;;;;;;;-4.14;72.54;98500.79;2172385;81;21376;-77
2021/12/25 14:15:42;;;;;;;125.20;68.33;;;;;;;-4.18;72.68;98497.16;2171813;81;21333;-77
2021/12/25 14:18:42;;;;;;;113.97;64.70;;;;;;;-4.24;72.82;98496.78;2172501;82;20973;-76
2021/12/25 14:21:43;;;;;;;55.50;31.20;;;;;;;-4.28;73.04;98500.31;2172436;81;21504;-77
2021/12/25 14:24:43;;;;;;;55.00;31.70;;;;;;;-4.31;73.23;98497.56;2184148;81;21047;-77
2021/12/25 14:27:44;;;;;;;36.63;20.27;;;;;;;-4.35;73.48;98504.48;2188450;81;20975;-76
2021/12/25 14:30:44;;;;;;;41.93;22.00;;;;;;;-4.37;73.72;98503.12;2189285;81;20960;-76
2021/12/25 14:33:45;;;;;;;48.77;23.07;;;;;;;-4.41;73.95;98510.47;2188498;81;21020;-76
2021/12/25 14:36:45;;;;;;;72.07;31.53;;;;;;;-4.46;74.24;98508.89;2188415;81;21000;-77
2021/12/25 14:39:46;;;;;;;61.13;28.63;;;;;;;-4.52;74.42;98501.74;2189237;81;21284;-77
2021/12/25 14:42:46;;;;;;;103.57;38.70;;;;;;;-4.57;74.56;98506.05;2188542;81;20972;-77
2021/12/25 14:45:46;;;;;;;56.40;24.30;;;;;;;-4.64;74.79;98504.77;2188499;81;20941;-77
2021/12/25 14:48:47;;;;;;;37.43;18.53;;;;;;;-4.68;74.63;98511.72;2188831;81;20976;-77
2021/12/25 14:51:47;;;;;;;23.97;10.87;;;;;;;-4.76;74.20;98512.00;2188006;81;20989;-77
2021/12/25 14:54:48;;;;;;;25.03;11.63;;;;;;;-4.91;73.64;98511.88;2187495;81;20964;-77
2021/12/25 14:57:48;;;;;;;32.80;12.53;;;;;;;-5.04;73.90;98523.30;2187986;81;20985;-77
2021/12/25 15:00:49;;;;;;;14.07;7.43;;;;;;;-5.18;73.90;98524.92;2188034;81;21332;-77
2021/12/25 15:03:49;;;;;;;20.93;8.53;;;;;;;-5.28;73.99;98525.92;2188080;81;21035;-77